Time;durP1;ratioP1;P1;durP2;ratioP2;P2;SDS_P1;SDS_P2;PMS_P1;PMS_P2;Temp;Humidity;BMP_temperature;BMP_pressure;BME280_temperature;BME280_humidity;BME280_pressure;Samples;Min_cycle;Max_cycle;Signal;HPM_P1;HPM_P2
2021/04/03 00:02:07;;;;;;;64.17;26.10;;;4.10;99.90;;;;;;5000907;28;20182;-86
2021/04/03 00:04:33;;;;;;;67.07;26.20;;;4.20;99.90;;;;;;5016893;28;20277;-86
2021/04/03 00:06:59;;;;;;;45.07;19.80;;;4.20;99.90;;;;;;5034828;28;20196;-85
2021/04/03 00:09:24;;;;;;;40.97;18.73;;;4.20;99.90;;;;;;5033951;28;20184;-87
2021/04/03 00:11:50;;;;;;;45.10;17.90;;;4.20;99.90;;;;;;5033472;28;20185;-87
2021/04/03 00:14:16;;;;;;;40.37;17.50;;;4.20;99.90;;;;;;5017030;28;20207;-87
2021/04/03 00:16:42;;;;;;;41.37;19.00;;;4.20;99.90;;;;;;5016709;28;20638;-88
2021/04/03 00:19:08;;;;;;;35.53;16.30;;;4.20;99.90;;;;;;5034445;28;20220;-87
2021/04/03 00:21:33;;;;;;;38.07;17.63;;;4.20;99.90;;;;;;5033700;28;20518;-88
2021/04/03 00:23:59;;;;;;;35.83;17.80;;;4.30;99.90;;;;;;5000495;28;20641;-87
2021/04/03 00:26:25;;;;;;;38.03;16.87;;;4.30;99.90;;;;;;5033850;28;20180;-87
2021/04/03 00:28:51;;;;;;;32.87;16.47;;;4.30;99.90;;;;;;5034278;28;20595;-87
2021/04/03 00:31:18;;;;;;;36.17;17.97;;;4.30;99.90;;;;;;5033658;28;20188;-87
2021/04/03 00:33:44;;;;;;;40.73;18.50;;;4.30;99.90;;;;;;5016019;28;20617;-87
2021/04/03 00:36:10;;;;;;;39.40;16.97;;;4.40;99.90;;;;;;5034125;28;20174;-86
2021/04/03 00:38:35;;;;;;;39.50;17.10;;;4.40;99.90;;;;;;5016020;28;20212;-87
2021/04/03 00:41:01;;;;;;;39.73;19.63;;;4.40;99.90;;;;;;5033578;28;20182;-87
2021/04/03 00:43:27;;;;;;;33.70;16.83;;;4.40;99.90;;;;;;5033821;28;20179;-86
2021/04/03 00:45:53;;;;;;;42.03;18.80;;;4.40;99.90;;;;;;5033862;28;20182;-86
2021/04/03 00:48:20;;;;;;;45.83;19.87;;;4.40;99.90;;;;;;5016026;28;20229;-87
2021/04/03 00:50:51;;;;;;;39.33;18.57;;;4.40;99.90;;;;;;5033575;28;20191;-87
2021/04/03 00:53:20;;;;;;;40.93;17.77;;;4.40;99.90;;;;;;5033608;28;20168;-88
2021/04/03 00:55:46;;;;;;;40.17;16.93;;;4.30;99.90;;;;;;5033189;28;20209;-84
2021/04/03 00:58:12;;;;;;;35.30;18.17;;;4.30;99.90;;;;;;5033722;28;20265;-85
2021/04/03 01:00:39;;;;;;;36.33;17.13;;;4.20;99.90;;;;;;5033076;28;20202;-86
2021/04/03 01:03:05;;;;;;;39.13;17.37;;;4.30;99.90;;;;;;5016077;28;20198;-86
2021/04/03 01:05:30;;;;;;;41.37;18.33;;;4.20;99.90;;;;;;5033560;28;20759;-87
2021/04/03 01:07:56;;;;;;;38.17;18.20;;;4.20;99.90;;;;;;5033567;28;20237;-87
2021/04/03 01:10:29;;;;;;;40.23;17.80;;;4.30;99.90;;;;;;5033188;28;20179;-86
2021/04/03 01:13:37;;;;;;;34.43;17.00;;;4.30;99.90;;;;;;5032760;28;20177;-86
2021/04/03 01:16:24;;;;;;;34.77;17.90;;;4.30;99.90;;;;;;5015819;28;20634;-86
2021/04/03 01:19:17;;;;;;;38.97;17.50;;;4.30;99.90;;;;;;5033376;28;20212;-86
2021/04/03 01:22:07;;;;;;;44.77;18.77;;;4.30;99.90;;;;;;5033218;28;20178;-86
2021/04/03 01:24:53;;;;;;;45.93;18.73;;;4.30;99.90;;;;;;5033446;28;20186;-88
2021/04/03 01:27:25;;;;;;;51.37;20.13;;;4.30;99.90;;;;;;5015095;28;20184;-86
2021/04/03 01:30:05;;;;;;;42.77;17.83;;;4.30;99.90;;;;;;5015437;28;20558;-86
2021/04/03 01:32:49;;;;;;;44.20;19.33;;;4.20;99.90;;;;;;5032406;28;20637;-86
2021/04/03 01:35:20;;;;;;;42.40;19.23;;;4.20;99.90;;;;;;5033207;28;20225;-86
2021/04/03 01:37:52;;;;;;;44.03;19.53;;;4.20;99.90;;;;;;5032988;28;20186;-87
2021/04/03 01:40:20;;;;;;;42.03;18.77;;;4.10;99.90;;;;;;5033141;28;20191;-87
2021/04/03 01:42:53;;;;;;;39.20;19.77;;;4.10;99.90;;;;;;5014186;28;20713;-86
2021/04/03 01:45:21;;;;;;;38.50;18.57;;;4.10;99.90;;;;;;5033398;28;20166;-86
2021/04/03 01:47:49;;;;;;;35.33;18.63;;;4.10;99.90;;;;;;5032143;28;20226;-86
2021/04/03 01:50:17;;;;;;;38.83;18.00;;;4.00;99.90;;;;;;5015763;28;20325;-86
2021/04/03 01:52:43;;;;;;;41.03;17.43;;;4.00;99.90;;;;;;5014455;28;20192;-87
2021/04/03 01:55:11;;;;;;;35.30;17.33;;;4.00;99.90;;;;;;5015274;28;20531;-86
2021/04/03 01:57:40;;;;;;;36.97;18.33;;;3.90;99.90;;;;;;5031848;28;20548;-86
2021/04/03 02:00:11;;;;;;;42.07;18.23;;;3.90;99.90;;;;;;5032195;28;20214;-86
2021/04/03 02:02:39;;;;;;;41.00;18.63;;;3.80;99.90;;;;;;5033182;28;20176;-86
2021/04/03 02:05:10;;;;;;;44.07;18.63;;;3.90;99.90;;;;;;5033017;28;20168;-86
2021/04/03 02:07:39;;;;;;;36.50;18.93;;;3.90;99.90;;;;;;5032843;28;20208;-91
2021/04/03 02:10:06;;;;;;;37.77;18.50;;;3.90;99.90;;;;;;5032863;28;20291;-87
2021/04/03 02:12:36;;;;;;;35.43;17.63;;;3.80;99.90;;;;;;5032968;28;20266;-87
2021/04/03 02:15:05;;;;;;;36.73;17.20;;;3.90;99.90;;;;;;5032047;28;20176;-86
2021/04/03 02:17:33;;;;;;;38.17;18.07;;;3.90;99.90;;;;;;5032214;28;20181;-85
2021/04/03 02:20:00;;;;;;;38.83;18.00;;;3.90;99.90;;;;;;5032525;28;20213;-87
2021/04/03 02:22:26;;;;;;;40.97;19.83;;;3.80;99.90;;;;;;5032452;28;20661;-87
2021/04/03 02:24:54;;;;;;;53.70;24.93;;;3.80;99.90;;;;;;5032388;28;20184;-87
2021/04/03 02:27:20;;;;;;;58.80;27.73;;;3.70;99.90;;;;;;5014891;28;20230;-86
2021/04/03 02:29:46;;;;;;;62.47;26.20;;;3.70;99.90;;;;;;5017341;28;20635;-85
2021/04/03 02:32:12;;;;;;;48.87;24.77;;;3.60;99.90;;;;;;5016150;28;20238;-87
2021/04/03 02:34:40;;;;;;;47.93;19.43;;;3.60;99.90;;;;;;5015672;28;20635;-87
2021/04/03 02:37:06;;;;;;;40.23;19.70;;;3.50;99.90;;;;;;5036118;28;20177;-87
2021/04/03 02:39:32;;;;;;;38.30;18.57;;;3.50;99.90;;;;;;5035945;28;20764;-87
2021/04/03 02:42:10;;;;;;;43.80;19.10;;;3.50;99.90;;;;;;5017515;28;20180;-87
2021/04/03 02:44:45;;;;;;;43.10;20.87;;;3.50;99.90;;;;;;5036517;28;20212;-87
2021/04/03 02:47:20;;;;;;;44.90;19.77;;;3.50;99.90;;;;;;5036138;28;20237;-87
2021/04/03 02:49:58;;;;;;;43.60;19.40;;;3.50;99.90;;;;;;5035941;28;20235;-87
2021/04/03 02:52:26;;;;;;;42.20;19.43;;;3.50;99.90;;;;;;5036075;28;20188;-87
2021/04/03 02:54:53;;;;;;;41.13;18.00;;;3.50;99.90;;;;;;5035735;28;20181;-87
2021/04/03 02:57:20;;;;;;;40.07;18.03;;;3.50;99.90;;;;;;5035896;28;20181;-87
2021/04/03 02:59:54;;;;;;;36.93;19.80;;;3.50;99.90;;;;;;5035078;28;20217;-87
2021/04/03 03:02:23;;;;;;;36.10;18.70;;;3.50;99.90;;;;;;5035505;28;20275;-87
2021/04/03 03:04:50;;;;;;;39.53;18.47;;;3.40;99.90;;;;;;5035911;28;20197;-87
2021/04/03 03:07:17;;;;;;;54.53;17.37;;;3.40;99.90;;;;;;5035964;28;20660;-87
2021/04/03 03:09:45;;;;;;;39.13;18.17;;;3.40;99.90;;;;;;5018328;28;20200;-90
2021/04/03 03:12:14;;;;;;;40.33;18.07;;;3.30;99.90;;;;;;5035536;28;20629;-87
2021/04/03 03:14:41;;;;;;;43.20;18.60;;;3.30;99.90;;;;;;5017879;28;20185;-87
2021/04/03 03:17:09;;;;;;;39.67;18.13;;;3.30;99.90;;;;;;5035323;28;20185;-89
2021/04/03 03:19:37;;;;;;;41.53;19.03;;;3.30;99.90;;;;;;5035446;28;20295;-87
2021/04/03 03:22:06;;;;;;;41.70;18.37;;;3.20;99.90;;;;;;5035310;28;20633;-86
2021/04/03 03:24:36;;;;;;;40.93;19.67;;;3.20;99.90;;;;;;5017736;28;20196;-86
2021/04/03 03:27:03;;;;;;;48.13;20.33;;;3.10;99.90;;;;;;5017528;28;20211;-84
2021/04/03 03:29:30;;;;;;;42.70;19.70;;;3.10;99.90;;;;;;5001317;28;20549;-87
2021/04/03 03:31:56;;;;;;;42.53;20.07;;;3.10;99.90;;;;;;5034593;28;20187;-88
2021/04/03 03:34:22;;;;;;;43.97;21.17;;;3.10;99.90;;;;;;5035241;28;20173;-87
2021/04/03 03:36:48;;;;;;;43.30;20.90;;;3.00;99.90;;;;;;5017639;28;20185;-88
2021/04/03 03:39:14;;;;;;;40.93;19.77;;;3.00;99.90;;;;;;5035156;28;20212;-87
2021/04/03 03:41:40;;;;;;;46.30;19.40;;;3.00;99.90;;;;;;5017825;28;20173;-87
2021/04/03 03:44:07;;;;;;;69.03;25.77;;;3.00;99.90;;;;;;5017475;28;20176;-88
2021/04/03 03:46:33;;;;;;;60.47;28.07;;;3.00;99.90;;;;;;5033819;28;20660;-87
2021/04/03 03:48:59;;;;;;;59.50;29.20;;;3.10;99.90;;;;;;5035060;28;20304;-87
2021/04/03 03:51:25;;;;;;;59.60;28.53;;;3.10;99.90;;;;;;5034176;28;20176;-87
2021/04/03 03:53:51;;;;;;;63.83;28.47;;;3.10;99.90;;;;;;5016769;28;20679;-88
2021/04/03 03:56:17;;;;;;;350.13;104.60;;;3.10;99.90;;;;;;5034584;28;20546;-88
2021/04/03 03:58:44;;;;;;;263.40;96.90;;;3.10;99.90;;;;;;5034846;28;20205;-87
2021/04/03 04:01:10;;;;;;;130.80;58.67;;;3.20;99.90;;;;;;5034634;28;20267;-87
2021/04/03 04:03:36;;;;;;;78.33;36.07;;;3.20;99.90;;;;;;5035015;28;20267;-87
2021/04/03 04:06:05;;;;;;;57.60;26.87;;;3.10;99.90;;;;;;5034495;28;20181;-88
2021/04/03 04:08:31;;;;;;;105.47;40.67;;;3.10;99.90;;;;;;5017175;28;20188;-87
2021/04/03 04:10:57;;;;;;;174.67;62.40;;;3.10;99.90;;;;;;5016550;28;20200;-87
2021/04/03 04:13:23;;;;;;;188.23;65.43;;;3.00;99.90;;;;;;5034281;28;20638;-87
2021/04/03 04:15:49;;;;;;;118.40;44.40;;;2.90;99.90;;;;;;5034023;28;20189;-93
2021/04/03 04:18:15;;;;;;;68.03;30.40;;;3.00;99.90;;;;;;5000718;28;20184;-87
2021/04/03 04:20:41;;;;;;;88.73;34.23;;;2.90;99.90;;;;;;5034508;28;20177;-87
2021/04/03 04:23:07;;;;;;;93.77;36.60;;;2.90;99.90;;;;;;5034202;28;20181;-87
2021/04/03 04:25:32;;;;;;;99.30;37.53;;;2.90;99.90;;;;;;5034508;28;20185;-87
2021/04/03 04:27:58;;;;;;;133.77;46.67;;;2.80;99.90;;;;;;4999755;28;20217;-87
2021/04/03 04:30:24;;;;;;;118.77;43.03;;;2.80;99.90;;;;;;5016404;28;20634;-87
2021/04/03 04:32:49;;;;;;;120.47;42.23;;;2.80;99.90;;;;;;5016546;28;20207;-87
2021/04/03 04:35:16;;;;;;;83.27;31.73;;;2.90;99.90;;;;;;5032750;28;20626;-88
2021/04/03 04:37:42;;;;;;;87.67;34.37;;;2.80;99.90;;;;;;5001733;28;20277;-87
2021/04/03 04:40:10;;;;;;;47.43;22.40;;;2.80;99.90;;;;;;5002374;28;20258;-88
2021/04/03 04:42:39;;;;;;;45.13;21.47;;;2.80;99.90;;;;;;5002687;28;20209;-88
2021/04/03 04:45:07;;;;;;;49.57;19.37;;;2.70;99.90;;;;;;5003077;28;20265;-88
2021/04/03 04:47:32;;;;;;;42.67;19.10;;;2.80;99.90;;;;;;4994469;28;20230;-87
2021/04/03 04:49:58;;;;;;;42.87;18.93;;;2.80;99.90;;;;;;4968047;28;20200;-88
2021/04/03 04:52:24;;;;;;;99.10;30.80;;;2.90;99.90;;;;;;4980491;28;20675;-88
2021/04/03 04:54:50;;;;;;;126.33;37.93;;;3.00;99.90;;;;;;4980473;28;20243;-87
2021/04/03 04:57:16;;;;;;;116.10;35.60;;;3.10;99.90;;;;;;5013445;28;20268;-87
2021/04/03 04:59:41;;;;;;;217.10;55.90;;;3.20;99.90;;;;;;5006830;28;20293;-88
2021/04/03 05:02:07;;;;;;;220.80;56.60;;;3.20;99.90;;;;;;4983805;28;20181;-89
2021/04/03 05:04:33;;;;;;;144.73;43.80;;;3.30;99.90;;;;;;4978318;28;20451;-88
2021/04/03 05:06:59;;;;;;;173.47;46.83;;;3.30;99.90;;;;;;5004980;28;20379;-88
2021/04/03 05:09:24;;;;;;;151.37;42.60;;;3.40;99.90;;;;;;4968246;28;20193;-90
2021/04/03 05:11:50;;;;;;;153.57;44.33;;;3.40;99.90;;;;;;4989202;28;20254;-90
2021/04/03 05:14:16;;;;;;;219.17;57.73;;;3.50;99.90;;;;;;5001608;28;20554;-90
2021/04/03 05:16:41;;;;;;;140.40;42.30;;;3.50;99.90;;;;;;5007299;28;20185;-87
2021/04/03 05:19:07;;;;;;;123.27;40.20;;;3.60;99.90;;;;;;4981548;28;20217;-89
2021/04/03 05:21:36;;;;;;;241.10;70.53;;;3.60;99.90;;;;;;4992658;28;20661;-88
2021/04/03 05:24:02;;;;;;;269.20;77.93;;;3.60;99.90;;;;;;4987215;28;20198;-89
2021/04/03 05:26:28;;;;;;;254.73;75.30;;;3.60;99.90;;;;;;4989999;28;20570;-86
2021/04/03 05:28:53;;;;;;;150.57;52.03;;;2.10;99.90;;;;;;4990370;28;20202;-82
2021/04/03 05:31:21;;;;;;;149.67;49.50;;;3.70;99.90;;;;;;5003259;28;20245;-87
2021/04/03 05:33:48;;;;;;;141.60;47.00;;;3.80;99.90;;;;;;5004955;28;20217;-86
2021/04/03 05:36:13;;;;;;;106.60;40.67;;;3.80;99.90;;;;;;4988949;28;20294;-86
2021/04/03 05:38:40;;;;;;;129.40;43.67;;;3.90;99.90;;;;;;5007621;28;20747;-86
2021/04/03 05:41:05;;;;;;;70.77;29.77;;;4.00;99.90;;;;;;5007239;28;20192;-86
2021/04/03 05:43:33;;;;;;;70.40;28.43;;;4.10;99.90;;;;;;5006642;28;20186;-86
2021/04/03 05:45:59;;;;;;;60.73;25.80;;;4.20;99.90;;;;;;5003909;28;20193;-88
2021/04/03 05:48:25;;;;;;;60.97;27.57;;;4.20;99.90;;;;;;4986752;28;20233;-86
2021/04/03 05:50:55;;;;;;;50.10;22.17;;;4.20;99.90;;;;;;5013542;28;20557;-87
2021/04/03 05:53:22;;;;;;;38.27;17.57;;;4.30;99.90;;;;;;5003867;28;20196;-86
2021/04/03 05:55:58;;;;;;;31.53;15.83;;;4.30;99.90;;;;;;5011521;28;20177;-86
2021/04/03 05:58:24;;;;;;;33.23;17.70;;;4.40;99.90;;;;;;5005662;28;20291;-86
2021/04/03 06:00:53;;;;;;;42.17;19.27;;;4.40;99.90;;;;;;4991551;28;20336;-86
2021/04/03 06:03:20;;;;;;;57.17;23.50;;;4.40;99.90;;;;;;4993644;28;20405;-86
2021/04/03 06:05:49;;;;;;;69.83;22.27;;;4.50;99.90;;;;;;4993161;28;20199;-85
2021/04/03 06:08:15;;;;;;;55.37;21.80;;;4.50;99.90;;;;;;5011058;28;20653;-86
2021/04/03 06:10:41;;;;;;;45.60;19.23;;;4.50;99.90;;;;;;4990438;28;20193;-85
2021/04/03 06:13:19;;;;;;;50.73;22.27;;;4.50;99.90;;;;;;5016582;28;20195;-88
2021/04/03 06:15:45;;;;;;;29.83;14.17;;;4.50;99.90;;;;;;4993448;28;20298;-86
2021/04/03 06:18:12;;;;;;;25.33;15.00;;;4.60;99.90;;;;;;5009224;28;20219;-85
2021/04/03 06:20:41;;;;;;;28.83;15.53;;;4.70;99.90;;;;;;4997395;28;20186;-87
2021/04/03 06:23:09;;;;;;;36.50;16.80;;;4.80;99.90;;;;;;5015460;28;20652;-86
2021/04/03 06:25:58;;;;;;;40.90;20.03;;;4.90;99.90;;;;;;4997693;28;20186;-86
2021/04/03 06:28:32;;;;;;;23.37;12.73;;;4.90;99.90;;;;;;5008945;28;20608;-87
2021/04/03 06:31:20;;;;;;;26.47;12.43;;;5.10;99.90;;;;;;5007638;28;20671;-85
2021/04/03 06:33:46;;;;;;;25.30;12.57;;;5.20;99.90;;;;;;5010094;28;20253;-87
2021/04/03 06:36:18;;;;;;;25.47;13.13;;;5.20;99.90;;;;;;4992782;28;20185;-87
2021/04/03 06:38:46;;;;;;;39.90;16.03;;;5.40;99.90;;;;;;4989882;28;20569;-86
2021/04/03 06:41:22;;;;;;;19.07;10.20;;;5.50;99.90;;;;;;4989057;28;20185;-86
2021/04/03 06:44:07;;;;;;;13.70;8.23;;;5.40;99.90;;;;;;5008881;28;20184;-87
2021/04/03 06:46:34;;;;;;;17.77;9.30;;;5.50;99.90;;;;;;5001540;28;20199;-84
2021/04/03 06:49:00;;;;;;;13.77;7.97;;;5.60;99.90;;;;;;4961378;28;20360;-87
2021/04/03 06:51:28;;;;;;;15.17;8.27;;;5.70;99.90;;;;;;4976157;28;20201;-85
2021/04/03 06:53:56;;;;;;;13.37;8.93;;;5.80;99.90;;;;;;4990250;28;20193;-86
2021/04/03 06:56:26;;;;;;;15.37;7.03;;;5.60;99.90;;;;;;4976435;28;20246;-86
2021/04/03 06:59:03;;;;;;;11.77;7.03;;;5.60;99.90;;;;;;4982612;28;20238;-85
2021/04/03 07:01:54;;;;;;;13.67;8.47;;;5.80;99.90;;;;;;4991248;28;20177;-86
2021/04/03 07:04:36;;;;;;;15.20;8.10;;;6.00;99.90;;;;;;4972193;28;20205;-86
2021/04/03 07:07:02;;;;;;;12.13;7.30;;;6.20;99.90;;;;;;4973955;28;20210;-86
2021/04/03 07:09:30;;;;;;;13.30;7.57;;;6.40;99.90;;;;;;4973716;28;20197;-86
2021/04/03 07:11:57;;;;;;;13.60;6.33;;;6.40;99.90;;;;;;4987269;28;20235;-86
2021/04/03 07:14:23;;;;;;;8.50;5.47;;;6.60;99.90;;;;;;4955563;28;20190;-87
2021/04/03 07:16:50;;;;;;;8.07;5.00;;;6.70;99.90;;;;;;4969829;28;20282;-86
2021/04/03 07:19:21;;;;;;;9.90;4.73;;;6.80;99.90;;;;;;4969068;28;20217;-86
2021/04/03 07:21:47;;;;;;;8.20;5.17;;;6.80;99.90;;;;;;4994557;28;20205;-88
2021/04/03 07:24:16;;;;;;;9.80;5.03;;;6.70;99.90;;;;;;4972981;28;20193;-86
2021/04/03 07:26:45;;;;;;;9.97;5.23;;;6.80;99.90;;;;;;4976919;28;20196;-86
2021/04/03 07:29:47;;;;;;;8.10;4.77;;;7.00;99.90;;;;;;4961961;28;20194;-86
2021/04/03 07:32:28;;;;;;;10.50;5.83;;;7.10;99.90;;;;;;4970510;28;20186;-86
2021/04/03 07:34:53;;;;;;;8.57;5.60;;;7.20;99.90;;;;;;4991410;28;20216;-86
2021/04/03 07:37:33;;;;;;;12.30;5.67;;;7.30;99.90;;;;;;4974546;28;20209;-85
2021/04/03 07:39:59;;;;;;;10.17;6.30;;;7.20;99.90;;;;;;4992161;28;20293;-86
2021/04/03 07:42:39;;;;;;;11.17;6.00;;;6.90;99.90;;;;;;4972163;28;20288;-87
2021/04/03 07:45:26;;;;;;;10.07;5.73;;;6.80;99.90;;;;;;4956240;28;20276;-86
2021/04/03 07:47:52;;;;;;;10.33;6.10;;;6.70;99.90;;;;;;4969605;28;20234;-86
2021/04/03 07:50:37;;;;;;;12.27;5.57;;;6.60;99.90;;;;;;4957830;28;20206;-88
2021/04/03 07:53:03;;;;;;;9.90;6.00;;;6.70;99.90;;;;;;4956990;28;20272;-86
2021/04/03 07:55:35;;;;;;;10.20;6.17;;;6.70;99.90;;;;;;4990256;28;20715;-86
2021/04/03 07:58:19;;;;;;;10.70;5.33;;;6.60;99.90;;;;;;4976202;28;20269;-86
2021/04/03 08:00:49;;;;;;;10.17;6.63;;;6.60;99.90;;;;;;4992758;28;20197;-85
2021/04/03 08:03:23;;;;;;;12.77;6.50;;;6.60;99.90;;;;;;4959776;28;20197;-87
2021/04/03 08:05:56;;;;;;;9.60;6.33;;;6.40;99.90;;;;;;4975554;28;20242;-88
2021/04/03 08:08:22;;;;;;;9.23;5.63;;;6.60;99.90;;;;;;4993549;28;20654;-86
2021/04/03 08:10:47;;;;;;;11.57;5.60;;;6.70;99.90;;;;;;4975125;28;20192;-85
2021/04/03 08:13:18;;;;;;;13.47;6.23;;;6.60;99.90;;;;;;4993172;28;20214;-87
2021/04/03 08:15:48;;;;;;;10.93;6.57;;;6.80;99.90;;;;;;4974317;28;20211;-84
2021/04/03 08:18:14;;;;;;;12.27;6.17;;;6.90;99.90;;;;;;4981961;28;20535;-86
2021/04/03 08:20:53;;;;;;;12.07;6.43;;;7.10;99.90;;;;;;4993963;28;20197;-88
2021/04/03 08:23:33;;;;;;;14.73;6.57;;;7.40;99.90;;;;;;4975761;28;20665;-85
2021/04/03 08:25:59;;;;;;;93.77;41.13;;;7.80;99.90;;;;;;4993013;28;20254;-84
2021/04/03 08:28:25;;;;;;;12.77;7.33;;;7.90;99.90;;;;;;4976071;28;20277;-88
2021/04/03 08:30:51;;;;;;;13.90;6.67;;;7.90;99.90;;;;;;4993300;28;20182;-88
2021/04/03 08:33:18;;;;;;;8.23;5.17;;;7.70;99.90;;;;;;4959090;28;20192;-88
2021/04/03 08:35:47;;;;;;;14.83;8.63;;;7.50;99.90;;;;;;4993190;28;20236;-88
2021/04/03 08:38:18;;;;;;;12.37;6.43;;;7.50;99.90;;;;;;4992012;28;20273;-88
2021/04/03 08:40:45;;;;;;;9.57;6.30;;;7.30;99.90;;;;;;4993015;28;20618;-88
2021/04/03 08:43:19;;;;;;;10.23;6.10;;;7.20;99.90;;;;;;4959393;28;20181;-87
2021/04/03 08:45:45;;;;;;;10.27;5.70;;;7.00;99.90;;;;;;4966445;28;20192;-88
2021/04/03 08:48:12;;;;;;;9.30;5.90;;;6.80;99.90;;;;;;4968896;28;20237;-86
2021/04/03 08:50:40;;;;;;;10.90;6.67;;;6.70;99.90;;;;;;4994281;28;20544;-87
2021/04/03 08:53:06;;;;;;;9.53;6.10;;;6.70;99.90;;;;;;4991162;28;20213;-89
2021/04/03 08:55:32;;;;;;;9.40;6.17;;;6.40;99.90;;;;;;5012172;28;20241;-90
2021/04/03 08:57:59;;;;;;;10.50;5.90;;;6.30;99.90;;;;;;5012485;28;20194;-91
2021/04/03 09:00:26;;;;;;;11.43;7.33;;;6.20;99.90;;;;;;5011981;28;20217;-88
2021/04/03 09:02:53;;;;;;;10.13;6.50;;;6.00;99.90;;;;;;5011637;28;20186;-88
2021/04/03 09:05:19;;;;;;;9.13;6.67;;;5.90;99.90;;;;;;5011693;28;20182;-85
2021/04/03 09:07:45;;;;;;;10.13;5.90;;;6.00;99.90;;;;;;5012267;28;20276;-89
2021/04/03 09:10:15;;;;;;;11.83;6.53;;;5.90;99.90;;;;;;5012154;28;20196;-88
2021/04/03 09:12:42;;;;;;;9.50;6.13;;;5.90;99.90;;;;;;5011651;28;20188;-86
2021/04/03 09:15:10;;;;;;;9.57;6.07;;;5.90;99.90;;;;;;5011669;28;20768;-89
2021/04/03 09:17:49;;;;;;;12.70;7.60;;;5.90;99.90;;;;;;5007171;28;20196;-90
2021/04/03 09:20:20;;;;;;;9.27;5.97;;;5.90;99.90;;;;;;5008511;28;20788;-87
2021/04/03 09:22:48;;;;;;;8.33;5.90;;;5.90;99.90;;;;;;5004956;28;20188;-89
2021/04/03 09:25:22;;;;;;;9.00;5.80;;;5.60;99.90;;;;;;5011575;28;20185;-86
2021/04/03 09:28:01;;;;;;;9.70;6.23;;;5.60;99.90;;;;;;5009774;28;20194;-86
2021/04/03 09:30:53;;;;;;;10.90;6.00;;;5.60;99.90;;;;;;5000716;28;20193;-86
2021/04/03 09:33:23;;;;;;;7.47;5.60;;;5.60;99.90;;;;;;4989116;28;20173;-87
2021/04/03 09:35:53;;;;;;;9.77;6.30;;;5.60;99.90;;;;;;5006155;28;20217;-86
2021/04/03 09:38:37;;;;;;;9.03;5.87;;;5.60;99.90;;;;;;4985725;28;20200;-88
2021/04/03 09:41:18;;;;;;;9.20;5.73;;;5.70;99.90;;;;;;5001914;28;20182;-86
2021/04/03 09:43:44;;;;;;;11.77;7.50;;;5.80;99.90;;;;;;5000752;28;20185;-88
2021/04/03 09:46:10;;;;;;;8.87;5.70;;;5.90;99.90;;;;;;4983536;28;20256;-89
2021/04/03 09:48:36;;;;;;;7.90;5.30;;;6.10;99.90;;;;;;4974489;28;20247;-90
2021/04/03 09:51:04;;;;;;;11.07;5.33;;;5.90;99.90;;;;;;4969412;28;20197;-90
2021/04/03 09:53:30;;;;;;;10.40;6.67;;;5.90;99.90;;;;;;4986185;28;20228;-87
2021/04/03 09:55:57;;;;;;;10.43;6.13;;;6.00;99.90;;;;;;4973229;28;20226;-86
2021/04/03 09:58:23;;;;;;;10.50;6.27;;;6.00;99.90;;;;;;4970002;28;20259;-88
2021/04/03 10:00:49;;;;;;;8.53;5.23;;;5.90;99.90;;;;;;4972076;28;20181;-91
2021/04/03 10:03:14;;;;;;;12.27;4.87;;;5.90;99.90;;;;;;4972060;28;20273;-88
2021/04/03 10:05:40;;;;;;;8.63;4.87;;;5.90;99.90;;;;;;4970310;28;20233;-86
2021/04/03 10:08:06;;;;;;;6.77;5.07;;;5.90;99.90;;;;;;4973506;28;20273;-88
2021/04/03 10:10:32;;;;;;;8.27;5.00;;;6.00;99.90;;;;;;4938499;28;20189;-88
2021/04/03 10:12:58;;;;;;;11.50;5.80;;;5.90;99.90;;;;;;4972722;28;20194;-88
2021/04/03 10:15:23;;;;;;;11.30;6.07;;;5.80;99.90;;;;;;4987213;28;20186;-89
2021/04/03 10:17:50;;;;;;;10.30;6.03;;;5.80;99.90;;;;;;4957879;28;20189;-88
2021/04/03 10:20:16;;;;;;;11.33;6.50;;;5.70;99.90;;;;;;4991592;28;20302;-89
2021/04/03 10:22:42;;;;;;;9.63;6.50;;;5.70;99.90;;;;;;4991814;28;20264;-89
2021/04/03 10:25:08;;;;;;;11.73;7.20;;;5.60;99.90;;;;;;4974740;28;20197;-88
2021/04/03 10:27:34;;;;;;;14.07;8.33;;;5.30;99.90;;;;;;4973554;28;20366;-86
2021/04/03 10:30:00;;;;;;;14.90;7.57;;;5.30;99.90;;;;;;4991721;28;20201;-90
2021/04/03 10:32:26;;;;;;;10.57;7.73;;;5.10;99.90;;;;;;4991536;28;20182;-86
2021/04/03 10:34:52;;;;;;;11.27;7.80;;;4.80;99.90;;;;;;4991570;28;20200;-89
2021/04/03 10:37:17;;;;;;;17.77;8.73;;;4.70;99.90;;;;;;4991586;28;20651;-88
2021/04/03 10:39:43;;;;;;;13.77;9.17;;;4.60;99.90;;;;;;4983290;28;20236;-87
2021/04/03 10:42:09;;;;;;;25.93;12.80;;;4.50;99.90;;;;;;4991799;28;20269;-87
2021/04/03 10:44:35;;;;;;;14.77;8.60;;;4.40;99.90;;;;;;4975127;28;20187;-88
2021/04/03 10:47:00;;;;;;;12.67;8.40;;;4.40;99.90;;;;;;4992085;28;20186;-87
2021/04/03 10:49:28;;;;;;;14.77;7.93;;;4.40;99.90;;;;;;5017807;28;20180;-85
2021/04/03 10:51:54;;;;;;;11.97;8.93;;;4.20;99.90;;;;;;4999420;28;20185;-87
2021/04/03 10:54:21;;;;;;;19.17;10.73;;;4.00;99.90;;;;;;5008077;28;20200;-87
2021/04/03 10:56:47;;;;;;;16.40;9.67;;;3.90;99.90;;;;;;5016983;28;20183;-87
2021/04/03 10:59:13;;;;;;;13.73;9.53;;;4.00;99.90;;;;;;5007140;28;20226;-87
2021/04/03 11:01:39;;;;;;;14.17;9.47;;;3.90;99.90;;;;;;5016260;28;20186;-85
2021/04/03 11:04:05;;;;;;;16.33;10.50;;;3.70;99.90;;;;;;5026365;28;20279;-88
2021/04/03 11:06:30;;;;;;;18.60;13.00;;;3.50;99.90;;;;;;4996896;28;20190;-87
2021/04/03 11:08:56;;;;;;;18.93;10.97;;;3.40;99.90;;;;;;4997108;28;20200;-85
2021/04/03 11:11:22;;;;;;;18.97;12.40;;;3.40;99.90;;;;;;5014501;28;20666;-86
2021/04/03 11:13:48;;;;;;;26.47;11.73;;;3.50;99.90;;;;;;5009964;28;20188;-87
2021/04/03 11:16:13;;;;;;;22.50;13.17;;;3.60;99.90;;;;;;4996719;28;20191;-87
2021/04/03 11:18:39;;;;;;;22.80;13.87;;;3.60;99.90;;;;;;4996547;28;20461;-85
2021/04/03 11:21:05;;;;;;;17.57;10.80;;;3.80;99.90;;;;;;5006634;28;20238;-84
2021/04/03 11:23:30;;;;;;;18.67;10.80;;;3.80;99.90;;;;;;4997903;28;20188;-85
2021/04/03 11:25:56;;;;;;;16.20;10.53;;;3.80;99.90;;;;;;5006730;28;20200;-85
2021/04/03 11:28:23;;;;;;;19.40;11.27;;;3.80;99.90;;;;;;5005247;28;20544;-83
2021/04/03 11:30:48;;;;;;;21.77;12.90;;;3.80;99.90;;;;;;5026425;28;20177;-85
2021/04/03 11:33:14;;;;;;;19.87;10.73;;;3.90;99.90;;;;;;5014326;28;20186;-86
2021/04/03 11:35:40;;;;;;;17.87;11.30;;;3.90;99.90;;;;;;5016731;28;20217;-87
2021/04/03 11:38:06;;;;;;;17.20;10.67;;;4.00;99.90;;;;;;4999299;28;20210;-87
2021/04/03 11:40:31;;;;;;;19.90;11.23;;;4.10;99.90;;;;;;4985596;28;20227;-86
2021/04/03 11:42:57;;;;;;;20.43;10.90;;;4.30;99.90;;;;;;5018870;28;20186;-86
2021/04/03 11:45:24;;;;;;;20.60;11.80;;;4.20;99.90;;;;;;5019174;28;20613;-84
2021/04/03 11:47:52;;;;;;;19.23;11.80;;;4.30;99.90;;;;;;5014204;28;20759;-86
2021/04/03 11:50:19;;;;;;;22.97;13.33;;;4.40;99.90;;;;;;5013762;28;20185;-87
2021/04/03 11:52:45;;;;;;;25.00;12.47;;;4.50;99.90;;;;;;4999171;28;20268;-84
2021/04/03 11:55:15;;;;;;;17.30;10.83;;;4.70;99.90;;;;;;5010715;28;20204;-85
2021/04/03 11:57:42;;;;;;;17.27;10.20;;;4.80;99.90;;;;;;4991017;28;20271;-86
2021/04/03 12:00:09;;;;;;;19.33;10.70;;;5.00;99.90;;;;;;4995885;28;20233;-83
2021/04/03 12:02:35;;;;;;;15.67;10.10;;;5.10;99.90;;;;;;5013613;28;20183;-85
2021/04/03 12:05:02;;;;;;;15.57;10.00;;;5.10;99.90;;;;;;4995655;28;20257;-85
2021/04/03 12:07:28;;;;;;;14.50;8.80;;;5.10;99.90;;;;;;4994901;28;20192;-86
2021/04/03 12:09:53;;;;;;;12.97;7.50;;;5.10;99.90;;;;;;5005169;28;20200;-84
2021/04/03 12:12:19;;;;;;;11.77;7.60;;;5.10;99.90;;;;;;5013851;28;20216;-86
2021/04/03 12:14:45;;;;;;;11.60;7.57;;;5.30;99.90;;;;;;5013598;28;20200;-86
2021/04/03 12:17:10;;;;;;;14.87;8.87;;;5.40;99.90;;;;;;5000515;28;20679;-85
2021/04/03 12:19:36;;;;;;;11.73;7.30;;;5.60;99.90;;;;;;5007256;28;20252;-87
2021/04/03 12:22:02;;;;;;;10.47;6.87;;;5.70;99.90;;;;;;5013507;28;20745;-85
2021/04/03 12:24:28;;;;;;;9.43;5.97;;;5.90;99.90;;;;;;4969218;28;20196;-83
2021/04/03 12:26:54;;;;;;;9.23;5.97;;;6.10;99.90;;;;;;5014178;28;20185;-84
2021/04/03 12:29:19;;;;;;;7.93;5.43;;;6.30;99.90;;;;;;4995016;28;20526;-83
2021/04/03 12:31:45;;;;;;;11.00;5.40;;;6.50;99.90;;;;;;4996756;28;20196;-85
2021/04/03 12:34:11;;;;;;;11.20;7.63;;;6.40;99.90;;;;;;5000076;28;20691;-87
2021/04/03 12:36:37;;;;;;;10.93;7.07;;;6.10;99.90;;;;;;4984011;28;20200;-86
2021/04/03 12:39:03;;;;;;;12.97;8.53;;;5.40;99.90;;;;;;4972442;28;20218;-85
2021/04/03 12:41:29;;;;;;;15.97;10.27;;;4.70;99.90;;;;;;5013924;28;20213;-86
2021/04/03 12:43:54;;;;;;;16.47;9.17;;;4.40;99.90;;;;;;4985760;28;20664;-85
2021/04/03 12:46:20;;;;;;;20.53;12.17;;;4.40;99.90;;;;;;4990287;28;20208;-86
2021/04/03 12:48:46;;;;;;;19.67;11.50;;;4.50;99.90;;;;;;4989792;28;20330;-85